Time;durP1;ratioP1;P1;durP2;ratioP2;P2;SDS_P1;SDS_P2;PMS_P1;PMS_P2;Temp;Humidity;BMP_temperature;BMP_pressure;BME280_temperature;BME280_humidity;BME280_pressure;Samples;Min_cycle;Max_cycle;Signal;HPM_P1;HPM_P2
2024/01/26 00:01:47;;;;;;;12.70;3.10;;;;;;;4.89;83.67;101389.92;105563;1254;71705;-53
2024/01/26 00:04:15;;;;;;;13.90;2.80;;;;;;;4.88;83.81;101390.45;105628;1256;69177;-56
2024/01/26 00:06:44;;;;;;;12.30;3.20;;;;;;;4.87;83.86;101391.13;105614;1256;69136;-55
2024/01/26 00:09:13;;;;;;;16.60;3.10;;;;;;;4.86;83.94;101389.58;105578;1253;73973;-55
2024/01/26 00:11:42;;;;;;;18.70;3.90;;;;;;;4.83;83.99;101390.61;105642;1255;82088;-56
2024/01/26 00:14:11;;;;;;;18.60;3.90;;;;;;;4.82;84.23;101388.86;105583;1251;70247;-55
2024/01/26 00:16:40;;;;;;;16.60;3.60;;;;;;;4.79;84.26;101387.82;105609;1256;69209;-51
2024/01/26 00:19:08;;;;;;;16.10;3.40;;;;;;;4.77;84.35;101391.27;105505;1255;69187;-54
2024/01/26 00:21:37;;;;;;;15.30;3.70;;;;;;;4.74;84.33;101390.76;105543;1253;73085;-55
2024/01/26 00:24:06;;;;;;;16.30;3.70;;;;;;;4.72;84.48;101393.00;105647;1255;81984;-55
2024/01/26 00:26:34;;;;;;;12.70;3.10;;;;;;;4.70;84.62;101393.67;105590;1256;71897;-56
2024/01/26 00:29:02;;;;;;;19.40;3.70;;;;;;;4.70;84.70;101394.55;105569;1254;69117;-56
2024/01/26 00:31:30;;;;;;;14.60;3.30;;;;;;;4.68;84.70;101400.60;105593;1255;69253;-54
2024/01/26 00:33:58;;;;;;;16.80;3.40;;;;;;;4.66;84.84;101401.13;105618;1253;74871;-56
2024/01/26 00:36:27;;;;;;;12.30;3.60;;;;;;;4.66;85.00;101405.45;105550;1255;83645;-53
2024/01/26 00:38:55;;;;;;;20.60;3.90;;;;;;;4.66;85.15;101409.95;105564;1253;72777;-56
2024/01/26 00:41:23;;;;;;;19.30;4.30;;;;;;;4.66;85.21;101415.66;105608;1255;69078;-54
2024/01/26 00:43:51;;;;;;;14.70;3.20;;;;;;;4.67;85.34;101416.19;105589;1253;69172;-56
2024/01/26 00:46:20;;;;;;;14.20;3.10;;;;;;;4.67;85.31;101422.08;105583;1255;72782;-52
2024/01/26 00:48:48;;;;;;;16.30;3.20;;;;;;;4.67;85.60;101423.63;105553;1256;81476;-55
2024/01/26 00:51:17;;;;;;;15.40;3.20;;;;;;;4.67;85.55;101423.28;105644;1253;71677;-54
2024/01/26 00:53:45;;;;;;;10.50;2.70;;;;;;;4.69;85.68;101431.60;105554;1253;69164;-55
2024/01/26 00:56:14;;;;;;;16.40;3.40;;;;;;;4.70;85.71;101435.92;105574;1255;69182;-54
2024/01/26 00:58:42;;;;;;;16.40;3.10;;;;;;;4.69;85.64;101438.52;105618;1251;73120;-55
2024/01/26 01:01:10;;;;;;;15.00;3.80;;;;;;;4.69;85.66;101435.92;105499;1255;81501;-55
2024/01/26 01:03:39;;;;;;;12.40;3.40;;;;;;;4.67;85.77;101434.36;105507;1256;71646;-55
2024/01/26 01:06:07;;;;;;;13.20;2.90;;;;;;;4.67;85.86;101440.59;105596;1251;69139;-55
2024/01/26 01:08:36;;;;;;;14.70;3.00;;;;;;;4.66;85.89;101440.59;105555;1255;69203;-56
2024/01/26 01:11:05;;;;;;;16.30;3.60;;;;;;;4.65;86.04;101442.66;105611;1253;72876;-56
2024/01/26 01:13:34;;;;;;;13.70;3.00;;;;;;;4.64;86.04;101437.46;105588;1253;81535;-54
2024/01/26 01:16:03;;;;;;;19.60;3.60;;;;;;;4.63;86.12;101439.02;105666;1253;71633;-55
2024/01/26 01:18:31;;;;;;;13.10;2.90;;;;;;;4.62;86.14;101438.48;105542;1256;69111;-56
2024/01/26 01:20:59;;;;;;;11.70;3.10;;;;;;;4.62;86.22;101440.73;105634;1251;69179;-56
2024/01/26 01:23:27;;;;;;;20.00;3.60;;;;;;;4.60;86.27;101444.20;105590;1253;73851;-55
2024/01/26 01:25:56;;;;;;;14.50;3.30;;;;;;;4.60;86.44;101441.61;105587;1255;81450;-56
2024/01/26 01:28:24;;;;;;;13.10;3.00;;;;;;;4.60;86.40;101445.60;105570;1255;70585;-55
2024/01/26 01:30:52;;;;;;;13.30;3.00;;;;;;;4.60;86.52;101446.44;105554;1255;69208;-57
2024/01/26 01:33:21;;;;;;;19.60;3.60;;;;;;;4.59;86.59;101450.25;105656;1255;69263;-53
2024/01/26 01:35:51;;;;;;;15.70;4.00;;;;;;;4.60;86.73;101447.30;105584;1253;71276;-55
2024/01/26 01:38:19;;;;;;;18.50;4.30;;;;;;;4.60;86.83;101450.09;105595;1253;81579;-55
2024/01/26 01:40:47;;;;;;;17.40;3.90;;;;;;;4.60;86.82;101451.66;105594;1255;72098;-56
2024/01/26 01:43:17;;;;;;;11.70;3.20;;;;;;;4.60;86.71;101449.55;105532;1255;69120;-55
2024/01/26 01:45:45;;;;;;;21.30;3.50;;;;;;;4.59;86.82;101451.80;105576;1256;69086;-55
2024/01/26 01:48:14;;;;;;;16.30;2.80;;;;;;;4.57;86.93;101449.73;105560;1253;73236;-55
2024/01/26 01:50:42;;;;;;;12.50;3.30;;;;;;;4.55;86.84;101452.84;105614;1256;81714;-55
2024/01/26 01:53:11;;;;;;;18.60;3.10;;;;;;;4.54;86.93;101454.90;105583;1253;71445;-53
2024/01/26 01:55:41;;;;;;;9.90;2.80;;;;;;;4.51;87.23;101453.52;105627;1256;69281;-55
2024/01/26 01:58:10;;;;;;;15.10;2.80;;;;;;;4.49;87.11;101454.88;105661;1253;69183;-55
2024/01/26 02:00:38;;;;;;;12.30;2.80;;;;;;;4.45;87.35;101453.65;105681;1253;73458;-53
2024/01/26 02:03:06;;;;;;;14.30;2.90;;;;;;;4.42;87.39;101451.39;105621;1255;81527;-55
2024/01/26 02:05:35;;;;;;;15.90;3.40;;;;;;;4.39;87.63;101454.14;105573;1252;72204;-56
2024/01/26 02:08:04;;;;;;;13.30;3.30;;;;;;;4.37;87.79;101451.17;105550;1255;69306;-55
2024/01/26 02:10:32;;;;;;;15.40;3.20;;;;;;;4.35;87.80;101453.09;105560;1255;69175;-56
2024/01/26 02:13:01;;;;;;;15.00;3.10;;;;;;;4.34;87.96;101454.80;105621;1253;73856;-56
2024/01/26 02:15:29;;;;;;;11.50;2.90;;;;;;;4.34;88.04;101453.41;105593;1256;81510;-56
2024/01/26 02:17:58;;;;;;;16.30;3.10;;;;;;;4.33;88.20;101454.45;105566;1254;72981;-56
2024/01/26 02:20:27;;;;;;;14.10;3.40;;;;;;;4.33;88.18;101447.19;105573;1255;69244;-56
2024/01/26 02:23:23;;;;;;;13.40;3.30;;;;;;;4.33;88.35;101441.99;105593;1255;69237;-55
2024/01/26 02:25:52;;;;;;;13.20;3.30;;;;;;;4.32;88.50;101442.16;105559;1253;73631;-54
2024/01/26 02:28:20;;;;;;;16.00;3.40;;;;;;;4.33;88.56;101447.02;105540;1256;80463;-55
2024/01/26 02:30:48;;;;;;;16.10;3.40;;;;;;;4.33;88.76;101444.77;105549;1255;71663;-55
2024/01/26 02:33:16;;;;;;;14.10;2.70;;;;;;;4.34;88.62;101446.15;105589;1256;69136;-54
2024/01/26 02:35:45;;;;;;;14.30;3.50;;;;;;;4.34;88.72;101444.59;105577;1253;69641;-56
2024/01/26 02:38:13;;;;;;;14.80;3.00;;;;;;;4.35;88.74;101441.14;105584;1253;72908;-56
2024/01/26 02:40:41;;;;;;;15.50;2.90;;;;;;;4.36;88.91;101449.29;105573;1253;81712;-55
2024/01/26 02:43:10;;;;;;;17.60;3.30;;;;;;;4.37;89.12;101445.65;105558;1253;70773;-55
2024/01/26 02:45:38;;;;;;;16.20;2.90;;;;;;;4.38;89.02;101442.36;105541;1256;69139;-54
2024/01/26 02:48:06;;;;;;;12.60;2.90;;;;;;;4.38;88.99;101443.74;105679;1253;69171;-56
2024/01/26 02:50:35;;;;;;;14.60;2.80;;;;;;;4.37;89.02;101443.91;105588;1256;74235;-55
2024/01/26 02:53:03;;;;;;;14.60;3.30;;;;;;;4.37;89.05;101442.02;105606;1255;81383;-55
2024/01/26 02:55:31;;;;;;;15.30;3.40;;;;;;;4.36;89.08;101437.16;105613;1251;70507;-56
2024/01/26 02:57:59;;;;;;;16.40;3.50;;;;;;;4.35;89.18;101434.91;105561;1255;69065;-56
2024/01/26 03:00:27;;;;;;;15.10;3.40;;;;;;;4.36;89.27;101435.95;105586;1255;69211;-53
2024/01/26 03:02:55;;;;;;;13.50;3.40;;;;;;;4.35;89.29;101436.83;105551;1253;72990;-55
2024/01/26 03:05:24;;;;;;;13.10;2.90;;;;;;;4.34;89.31;101437.50;105577;1256;81804;-56
2024/01/26 03:07:52;;;;;;;12.20;3.30;;;;;;;4.34;89.39;101434.21;105524;1256;71815;-54
2024/01/26 03:10:20;;;;;;;12.40;3.60;;;;;;;4.34;89.53;101437.85;105528;1254;69162;-56
2024/01/26 03:12:48;;;;;;;21.00;3.70;;;;;;;4.34;89.50;101440.95;105540;1255;69201;-53
2024/01/26 03:15:17;;;;;;;17.30;3.50;;;;;;;4.33;89.46;101439.92;105612;1256;73656;-52
2024/01/26 03:17:45;;;;;;;13.30;3.20;;;;;;;4.33;89.63;101436.27;105586;1255;81910;-55
2024/01/26 03:20:14;;;;;;;16.80;3.00;;;;;;;4.33;89.53;101438.52;105578;1258;73087;-55
2024/01/26 03:22:45;;;;;;;11.00;3.30;;;;;;;4.31;89.67;101442.33;105689;1253;69078;-52
2024/01/26 03:25:13;;;;;;;15.30;3.00;;;;;;;4.31;89.82;101443.54;105584;1256;69178;-56
2024/01/26 03:27:42;;;;;;;21.00;4.10;;;;;;;4.32;89.78;101444.92;105622;1253;72345;-56
2024/01/26 03:30:10;;;;;;;17.00;3.90;;;;;;;4.33;89.92;101444.95;105618;1256;81573;-56
2024/01/26 03:32:39;;;;;;;15.70;4.00;;;;;;;4.33;89.97;101449.44;105521;1256;73727;-56
2024/01/26 03:35:08;;;;;;;14.50;3.50;;;;;;;4.34;89.99;101446.84;105697;1254;69159;-55
2024/01/26 03:37:38;;;;;;;16.80;3.80;;;;;;;4.34;90.05;101442.70;105627;1255;69093;-56
2024/01/26 03:40:07;;;;;;;18.20;4.40;;;;;;;4.35;90.22;101439.93;105581;1255;72983;-55
2024/01/26 03:42:36;;;;;;;16.20;3.90;;;;;;;4.36;90.11;101440.63;105652;1256;83389;-54
2024/01/26 03:45:05;;;;;;;10.10;2.60;;;;;;;4.37;90.11;101442.36;105593;1251;70960;-55
2024/01/26 03:47:34;;;;;;;12.70;3.30;;;;;;;4.37;90.18;101440.80;105580;1256;69202;-54
2024/01/26 03:50:04;;;;;;;12.40;3.30;;;;;;;4.37;90.17;101445.64;105570;1256;69163;-52
2024/01/26 03:52:32;;;;;;;13.50;3.20;;;;;;;4.36;90.14;101445.30;105603;1256;72293;-52
2024/01/26 03:55:01;;;;;;;16.20;3.20;;;;;;;4.35;90.17;101451.87;105519;1256;81685;-53
2024/01/26 03:57:29;;;;;;;10.50;2.70;;;;;;;4.34;90.08;101440.44;105568;1253;72121;-56
2024/01/26 03:59:57;;;;;;;14.10;3.30;;;;;;;4.34;90.04;101442.88;105552;1251;69020;-55
2024/01/26 04:02:26;;;;;;;14.50;3.10;;;;;;;4.33;90.18;101449.96;105585;1255;69193;-55
2024/01/26 04:04:54;;;;;;;15.20;3.20;;;;;;;4.32;90.21;101447.35;105505;1253;73195;-56
2024/01/26 04:07:22;;;;;;;12.00;3.00;;;;;;;4.30;90.16;101443.37;105602;1255;82626;-55
2024/01/26 04:09:50;;;;;;;14.20;2.80;;;;;;;4.30;90.13;101441.46;105587;1256;72168;-53
2024/01/26 04:12:20;;;;;;;10.40;2.90;;;;;;;4.28;90.21;101449.06;105598;1256;69243;-56
2024/01/26 04:14:48;;;;;;;12.30;3.10;;;;;;;4.24;90.12;101442.13;105612;1256;69171;-55
2024/01/26 04:17:16;;;;;;;17.50;3.20;;;;;;;4.21;90.12;101439.85;105614;1254;73134;-55
2024/01/26 04:19:45;;;;;;;15.50;3.40;;;;;;;4.17;90.08;101438.79;105516;1255;82720;-55
2024/01/26 04:22:13;;;;;;;10.30;3.20;;;;;;;4.12;89.99;101435.82;105559;1254;71784;-54
2024/01/26 04:24:41;;;;;;;16.70;3.40;;;;;;;4.07;89.95;101435.96;105613;1256;69143;-56
2024/01/26 04:27:09;;;;;;;14.60;3.90;;;;;;;4.00;90.04;101429.34;105582;1255;69258;-56
2024/01/26 04:29:38;;;;;;;15.90;4.10;;;;;;;3.95;90.04;101434.33;105620;1253;74059;-54
2024/01/26 04:32:07;;;;;;;15.70;3.20;;;;;;;3.88;90.06;101434.80;105682;1256;82041;-54
2024/01/26 04:34:37;;;;;;;13.00;3.10;;;;;;;3.82;90.16;101432.51;105578;1256;71871;-56
2024/01/26 04:37:07;;;;;;;15.20;3.50;;;;;;;3.78;90.08;101437.49;105556;1255;69158;-53
2024/01/26 04:39:35;;;;;;;17.90;3.90;;;;;;;3.73;90.16;101440.57;105602;1251;69099;-56
2024/01/26 04:42:04;;;;;;;10.80;3.60;;;;;;;3.69;90.18;101441.92;105518;1256;73189;-53
2024/01/26 04:44:32;;;;;;;12.20;3.40;;;;;;;3.57;89.52;101449.08;105586;1251;81738;-56
2024/01/26 04:47:00;;;;;;;11.60;3.60;;;;;;;3.45;89.41;101448.45;105553;1253;71687;-55
2024/01/26 04:49:28;;;;;;;14.40;4.10;;;;;;;3.39;89.86;101448.40;105551;1256;69183;-55
2024/01/26 04:51:57;;;;;;;13.30;4.20;;;;;;;3.37;90.28;101452.02;105569;1256;69264;-56
2024/01/26 04:54:25;;;;;;;20.00;4.90;;;;;;;3.33;90.32;101454.39;105651;1256;73228;-54
2024/01/26 04:56:53;;;;;;;13.70;3.90;;;;;;;3.29;90.44;101454.02;105567;1258;82218;-54
2024/01/26 04:59:21;;;;;;;16.00;3.80;;;;;;;3.27;90.66;101454.50;105547;1256;71811;-51
2024/01/26 05:01:49;;;;;;;17.80;4.10;;;;;;;3.22;90.50;101455.83;105494;1251;69914;-50
2024/01/26 05:04:18;;;;;;;18.50;4.00;;;;;;;3.18;90.41;101454.06;105735;1256;69942;-50
2024/01/26 05:06:47;;;;;;;13.90;3.80;;;;;;;3.12;90.44;101456.95;105619;1255;73205;-50
2024/01/26 05:09:15;;;;;;;12.20;3.50;;;;;;;3.02;90.41;101455.45;105617;1266;82801;-51
2024/01/26 05:11:43;;;;;;;14.30;3.70;;;;;;;2.99;90.80;101450.94;105527;1255;71794;-48
2024/01/26 05:14:12;;;;;;;10.10;3.30;;;;;;;2.94;90.79;101447.25;105529;1257;69901;-52
2024/01/26 05:16:40;;;;;;;9.90;3.50;;;;;;;2.86;90.17;101447.68;105466;1251;70068;-49
2024/01/26 05:19:08;;;;;;;15.00;4.00;;;;;;;2.75;89.95;101442.54;105463;1256;73584;-50
2024/01/26 05:21:36;;;;;;;11.80;3.90;;;;;;;2.66;90.17;101445.72;105537;1257;81391;-49
2024/01/26 05:24:05;;;;;;;8.90;3.00;;;;;;;2.55;89.84;101446.46;105423;1256;73434;-49
2024/01/26 05:26:37;;;;;;;15.10;4.00;;;;;;;2.47;89.75;101448.26;105556;1256;69935;-50
2024/01/26 05:29:06;;;;;;;15.10;3.40;;;;;;;2.41;90.19;101443.16;105551;1255;69923;-48
2024/01/26 05:31:39;;;;;;;20.00;3.90;;;;;;;2.33;89.86;101450.48;105612;1255;73991;-48
2024/01/26 05:34:08;;;;;;;11.60;3.50;;;;;;;2.27;90.46;101450.73;105528;1257;80841;-49
2024/01/26 05:36:43;;;;;;;11.30;3.20;;;;;;;2.19;90.09;101449.08;105493;1257;72050;-49
2024/01/26 05:39:11;;;;;;;11.70;3.10;;;;;;;2.08;89.91;101446.67;105471;1266;69929;-51
2024/01/26 05:41:40;;;;;;;11.30;3.50;;;;;;;1.97;89.58;101448.77;105536;1258;69163;-55
2024/01/26 05:44:09;;;;;;;8.20;2.70;;;;;;;1.83;89.51;101443.20;105547;1264;72971;-54
2024/01/26 05:46:37;;;;;;;13.00;3.50;;;;;;;1.71;89.30;101441.80;105355;1265;81332;-52
2024/01/26 05:49:05;;;;;;;8.50;2.80;;;;;;;1.57;89.06;101441.22;105534;1256;72986;-50
2024/01/26 05:51:36;;;;;;;14.40;2.90;;;;;;;1.43;88.97;101436.36;105556;1251;70352;-50
2024/01/26 05:54:05;;;;;;;11.00;3.20;;;;;;;1.35;89.10;101433.29;105496;1257;69881;-51
2024/01/26 05:56:33;;;;;;;7.50;2.60;;;;;;;1.25;89.04;101426.58;106366;1251;73407;-51
2024/01/26 05:59:01;;;;;;;11.80;3.30;;;;;;;1.15;89.08;101430.02;105587;1255;82755;-50
2024/01/26 06:01:29;;;;;;;11.40;3.20;;;;;;;1.06;89.48;101427.96;105548;1256;71626;-51
2024/01/26 06:03:58;;;;;;;10.80;2.90;;;;;;;0.97;89.40;101427.94;105546;1257;69825;-50
2024/01/26 06:06:26;;;;;;;9.50;2.70;;;;;;;0.89;89.72;101427.30;105609;1258;69899;-50
2024/01/26 06:08:54;;;;;;;6.40;2.80;;;;;;;0.83;89.74;101431.48;105650;1255;73372;-51
2024/01/26 06:11:23;;;;;;;12.50;3.10;;;;;;;0.75;89.85;101433.39;105543;1255;81849;-50
2024/01/26 06:13:51;;;;;;;12.50;3.60;;;;;;;0.70;89.96;101438.44;105602;1255;73057;-49
2024/01/26 06:16:22;;;;;;;12.00;3.20;;;;;;;0.60;89.87;101434.28;105550;1251;69892;-49
2024/01/26 06:18:50;;;;;;;33.70;8.80;;;;;;;0.55;89.87;101432.46;105662;1255;70001;-51
2024/01/26 06:21:18;;;;;;;19.00;4.70;;;;;;;0.50;90.24;101431.83;105597;1255;74131;-50
2024/01/26 06:23:47;;;;;;;14.50;4.20;;;;;;;0.47;90.56;101436.42;105583;1255;82196;-50
2024/01/26 06:26:15;;;;;;;22.30;5.80;;;;;;;0.43;90.83;101433.10;105605;1256;71665;-49
2024/01/26 06:28:43;;;;;;;13.10;3.50;;;;;;;0.41;90.75;101436.66;105576;1252;69878;-50
2024/01/26 06:31:12;;;;;;;19.90;6.00;;;;;;;0.34;90.48;101433.59;105533;1256;70000;-48
2024/01/26 06:33:40;;;;;;;15.20;4.60;;;;;;;0.27;90.34;101434.12;105526;1257;72711;-49
2024/01/26 06:36:11;;;;;;;16.40;5.80;;;;;;;0.19;90.29;101436.20;105502;1257;81830;-47
2024/01/26 06:38:40;;;;;;;18.90;6.10;;;;;;;0.13;90.34;101443.45;105562;1258;70793;-47
2024/01/26 06:41:08;;;;;;;24.30;7.50;;;;;;;0.09;90.62;101442.66;105487;1258;69997;-48
2024/01/26 06:43:37;;;;;;;25.20;7.50;;;;;;;0.07;90.89;101437.30;105542;1258;70633;-50
2024/01/26 06:46:05;;;;;;;26.60;8.00;;;;;;;0.06;91.05;101439.50;105510;1254;73085;-49
2024/01/26 06:48:33;;;;;;;23.90;7.90;;;;;;;-0.01;90.62;101440.20;105569;1257;81726;-53
2024/01/26 06:51:01;;;;;;;29.10;10.30;;;;;;;-0.06;91.08;101433.55;105471;1257;70910;-48
2024/01/26 06:53:30;;;;;;;28.50;10.30;;;;;;;-0.06;91.05;101431.16;105639;1257;69935;-49
2024/01/26 06:55:58;;;;;;;28.60;10.10;;;;;;;-0.09;91.10;101431.61;105698;1257;69909;-48
2024/01/26 06:58:26;;;;;;;31.80;11.80;;;;;;;-0.10;91.25;101431.07;105588;1251;72747;-50
2024/01/26 07:00:55;;;;;;;31.10;10.00;;;;;;;-0.11;91.18;101429.82;105602;1256;81951;-48
2024/01/26 07:03:23;;;;;;;27.10;9.10;;;;;;;-0.12;91.56;101428.95;105588;1253;72563;-49
2024/01/26 07:05:53;;;;;;;32.50;8.40;;;;;;;-0.07;92.42;101423.59;105577;1251;70006;-50
2024/01/26 07:08:21;;;;;;;28.90;8.40;;;;;;;0.04;93.15;101418.50;105634;1256;69856;-48
2024/01/26 07:10:49;;;;;;;27.10;7.90;;;;;;;0.10;92.93;101414.15;105585;1251;72869;-51
2024/01/26 07:13:19;;;;;;;26.60;8.00;;;;;;;0.08;92.54;101414.45;105718;1256;82966;-50
2024/01/26 07:15:47;;;;;;;25.60;7.90;;;;;;;0.10;92.75;101415.02;105666;1256;73062;-49
2024/01/26 07:18:15;;;;;;;21.80;7.20;;;;;;;0.08;92.44;101412.73;105594;1257;69870;-55
2024/01/26 07:20:44;;;;;;;26.40;8.00;;;;;;;0.09;92.65;101418.08;105631;1257;69945;-55
2024/01/26 07:23:12;;;;;;;19.50;7.40;;;;;;;0.11;92.90;101418.48;105601;1251;72866;-48
2024/01/26 07:25:40;;;;;;;24.50;7.30;;;;;;;0.12;92.77;101418.33;105509;1258;81495;-48
2024/01/26 07:28:08;;;;;;;23.60;6.40;;;;;;;0.13;92.83;101422.13;105549;1255;72438;-49
2024/01/26 07:30:37;;;;;;;18.90;6.50;;;;;;;0.20;93.74;101419.02;105551;1254;70025;-49
2024/01/26 07:33:06;;;;;;;25.10;7.30;;;;;;;0.30;94.29;101417.52;105537;1257;70011;-46
2024/01/26 07:35:34;;;;;;;28.90;11.30;;;;;;;0.47;95.14;101411.66;105797;1255;73747;-47
2024/01/26 07:38:03;;;;;;;40.70;12.80;;;;;;;0.61;95.48;101408.02;105555;1257;81098;-47
2024/01/26 07:40:31;;;;;;;40.50;15.20;;;;;;;0.74;95.78;101407.73;105628;1251;71781;-48
2024/01/26 07:42:59;;;;;;;46.10;12.70;;;;;;;0.83;95.70;101404.81;105539;1257;69763;-50
2024/01/26 07:45:28;;;;;;;37.50;13.40;;;;;;;0.93;95.99;101407.05;105605;1256;69919;-48
2024/01/26 07:47:56;;;;;;;29.30;9.80;;;;;;;1.04;96.23;101405.54;105539;1253;73491;-49
2024/01/26 07:50:24;;;;;;;37.90;14.50;;;;;;;1.15;96.38;101397.83;105541;1256;81907;-48
2024/01/26 07:52:52;;;;;;;36.90;14.20;;;;;;;1.27;96.71;101391.13;105574;1257;71360;-48
2024/01/26 07:55:20;;;;;;;38.50;15.20;;;;;;;1.39;96.82;101388.58;105456;1258;69965;-48
2024/01/26 07:57:49;;;;;;;33.90;13.60;;;;;;;1.51;96.95;101377.92;105531;1257;69996;-50
2024/01/26 08:00:17;;;;;;;33.10;11.70;;;;;;;1.62;97.12;101379.30;105486;1257;72998;-50
2024/01/26 08:02:47;;;;;;;30.40;9.40;;;;;;;1.75;97.27;101374.85;105497;1257;82039;-50
2024/01/26 08:05:16;;;;;;;21.00;9.20;;;;;;;1.88;97.44;101374.84;105537;1252;72692;-51
2024/01/26 08:07:45;;;;;;;27.80;8.80;;;;;;;2.00;97.44;101372.27;105509;1251;69987;-50
2024/01/26 08:10:13;;;;;;;20.00;7.00;;;;;;;2.12;97.42;101367.24;105645;1257;70655;-51
2024/01/26 08:12:46;;;;;;;26.00;7.40;;;;;;;2.24;97.56;101362.05;105520;1251;72888;-54
2024/01/26 08:15:15;;;;;;;21.60;7.60;;;;;;;2.35;97.75;101363.23;106281;1256;81830;-52
2024/01/26 08:17:44;;;;;;;18.80;6.40;;;;;;;2.46;97.60;101363.20;105597;1251;70620;-55
2024/01/26 08:20:13;;;;;;;23.90;6.30;;;;;;;2.57;97.85;101355.20;105562;1257;69564;-56
2024/01/26 08:22:43;;;;;;;22.10;6.00;;;;;;;2.67;97.50;101352.54;105614;1257;69155;-55
2024/01/26 08:25:12;;;;;;;20.30;5.20;;;;;;;2.76;97.65;101346.42;105567;1252;73248;-56
2024/01/26 08:27:41;;;;;;;18.90;5.50;;;;;;;2.85;97.13;101348.93;105575;1251;79935;-55
2024/01/26 08:30:10;;;;;;;21.00;6.00;;;;;;;2.93;97.24;101347.98;105605;1256;71948;-53
2024/01/26 08:32:39;;;;;;;18.70;5.40;;;;;;;3.00;96.96;101348.55;105610;1251;69166;-53
2024/01/26 08:35:09;;;;;;;15.00;5.50;;;;;;;3.08;97.01;101349.67;105636;1255;69192;-52
2024/01/26 08:37:39;;;;;;;19.40;5.80;;;;;;;3.19;96.86;101346.30;105646;1256;71978;-55
2024/01/26 08:40:09;;;;;;;16.50;5.00;;;;;;;3.31;97.11;101348.14;105565;1252;82035;-54
2024/01/26 08:42:37;;;;;;;;;;;;;;;3.46;97.35;101348.77;105556;1251;70485;-54
2024/01/26 08:45:06;;;;;;;17.60;6.20;;;;;;;3.61;97.37;101348.02;105554;1255;69158;-55
2024/01/26 08:47:34;;;;;;;21.80;6.20;;;;;;;3.73;97.33;101341.52;105725;1255;69074;-53
2024/01/26 08:50:03;;;;;;;17.60;5.80;;;;;;;3.84;97.09;101339.51;105613;1251;74146;-55
2024/01/26 08:52:32;;;;;;;15.60;5.20;;;;;;;3.94;96.90;101336.45;105550;1256;82003;-52
2024/01/26 08:55:00;;;;;;;23.40;7.30;;;;;;;4.03;96.71;101334.59;105567;1257;72095;-55
2024/01/26 08:57:28;;;;;;;27.20;7.60;;;;;;;4.09;96.25;101332.38;105576;1258;69063;-54
2024/01/26 08:59:57;;;;;;;20.40;7.30;;;;;;;4.14;95.87;101339.83;105564;1256;69134;-53
2024/01/26 09:02:25;;;;;;;22.30;6.90;;;;;;;4.19;95.65;101332.92;105589;1253;72783;-53
2024/01/26 09:04:54;;;;;;;17.10;5.90;;;;;;;4.24;95.66;101328.63;105542;1251;81887;-51
2024/01/26 09:07:23;;;;;;;15.30;5.10;;;;;;;4.31;95.55;101324.50;105616;1251;70830;-52
2024/01/26 09:09:52;;;;;;;28.60;6.60;;;;;;;4.38;95.34;101320.20;105629;1256;69180;-54
2024/01/26 09:12:20;;;;;;;47.60;14.40;;;;;;;4.46;95.31;101326.27;105584;1255;69209;-55
2024/01/26 09:14:49;;;;;;;67.80;21.50;;;;;;;4.56;95.24;101328.90;105636;1251;73973;-55
2024/01/26 09:17:17;;;;;;;41.00;11.50;;;;;;;4.66;95.19;101329.80;105654;1251;81774;-53
2024/01/26 09:19:45;;;;;;;53.50;15.60;;;;;;;4.75;95.02;101326.88;105664;1251;71969;-55
2024/01/26 09:22:14;;;;;;;41.00;13.60;;;;;;;4.84;95.04;101323.60;105644;1256;69139;-54
2024/01/26 09:24:42;;;;;;;29.60;8.60;;;;;;;4.93;95.03;101320.83;105636;1256;69189;-55
2024/01/26 09:27:10;;;;;;;43.90;17.20;;;;;;;5.02;94.72;101311.99;105583;1251;73216;-51
2024/01/26 09:29:39;;;;;;;36.60;13.20;;;;;;;5.08;94.65;101306.80;105710;1255;81849;-53
2024/01/26 09:32:07;;;;;;;57.20;18.30;;;;;;;5.11;94.36;101300.23;105523;1257;71678;-53
2024/01/26 09:34:36;;;;;;;52.50;15.00;;;;;;;5.14;94.12;101297.10;105526;1256;69950;-49
2024/01/26 09:37:04;;;;;;;32.00;10.80;;;;;;;5.20;94.12;101295.72;105608;1251;69192;-51
2024/01/26 09:39:32;;;;;;;30.90;9.30;;;;;;;5.26;93.95;101292.25;105532;1251;73080;-53
2024/01/26 09:42:01;;;;;;;27.40;8.20;;;;;;;5.32;93.90;101291.20;105511;1257;81669;-53
2024/01/26 09:44:29;;;;;;;22.20;6.30;;;;;;;5.40;93.78;101284.77;105682;1255;70903;-50
2024/01/26 09:47:00;;;;;;;55.10;21.40;;;;;;;5.48;93.54;101278.16;105531;1255;69064;-53
2024/01/26 09:49:31;;;;;;;40.10;12.70;;;;;;;5.57;93.52;101266.70;105584;1251;69198;-53
2024/01/26 09:51:59;;;;;;;40.30;9.40;;;;;;;5.66;93.40;101263.21;105611;1251;73345;-55
2024/01/26 09:54:28;;;;;;;26.50;7.40;;;;;;;5.76;93.11;101258.50;105540;1251;81589;-54
2024/01/26 09:56:57;;;;;;;19.00;5.30;;;;;;;5.84;92.80;101258.99;105601;1251;70795;-51
2024/01/26 09:59:25;;;;;;;17.00;4.90;;;;;;;5.89;92.19;101252.73;105560;1252;69052;-52
2024/01/26 10:01:53;;;;;;;14.80;5.10;;;;;;;5.93;92.04;101249.95;105489;1252;69800;-54
2024/01/26 10:04:21;;;;;;;21.10;6.20;;;;;;;6.01;91.86;101241.44;105604;1251;72381;-52
2024/01/26 10:06:50;;;;;;;23.40;6.30;;;;;;;6.07;91.56;101235.51;105646;1256;82967;-54
2024/01/26 10:09:18;;;;;;;15.40;5.50;;;;;;;6.07;91.36;101232.56;105553;1251;72415;-50
2024/01/26 10:11:46;;;;;;;20.40;5.40;;;;;;;6.09;91.16;101229.95;105530;1251;69158;-53
2024/01/26 10:14:22;;;;;;;18.60;5.80;;;;;;;6.13;91.05;101222.63;105611;1257;69185;-53
2024/01/26 10:17:00;;;;;;;14.00;5.10;;;;;;;6.20;91.08;101218.23;105574;1251;71997;-54
2024/01/26 10:19:28;;;;;;;18.90;5.60;;;;;;;6.27;90.63;101209.02;105584;1251;80928;-55
2024/01/26 10:21:57;;;;;;;16.50;5.40;;;;;;;6.33;90.48;101200.12;105554;1255;72329;-53
2024/01/26 10:24:26;;;;;;;18.50;5.30;;;;;;;6.39;90.20;101192.26;105634;1251;69131;-55
2024/01/26 10:26:55;;;;;;;21.90;6.60;;;;;;;6.52;90.21;101187.31;105591;1252;69169;-54
2024/01/26 10:29:23;;;;;;;18.00;5.80;;;;;;;6.67;89.85;101190.31;105617;1255;72284;-54
2024/01/26 10:31:52;;;;;;;14.70;4.60;;;;;;;6.83;90.08;101189.30;105587;1255;81698;-53
2024/01/26 10:34:21;;;;;;;15.50;4.60;;;;;;;6.89;89.22;101184.57;105522;1255;71854;-54
2024/01/26 10:36:50;;;;;;;19.70;5.00;;;;;;;6.92;89.31;101173.77;105527;1255;69201;-54
2024/01/26 10:39:28;;;;;;;16.60;5.00;;;;;;;6.94;89.19;101165.58;105623;1253;69232;-54
2024/01/26 10:42:03;;;;;;;17.80;5.60;;;;;;;7.04;88.97;101159.58;105582;1251;71987;-51
2024/01/26 10:44:37;;;;;;;14.30;4.50;;;;;;;7.10;88.48;101157.59;105552;1253;81240;-53
2024/01/26 10:47:08;;;;;;;13.70;4.50;;;;;;;7.11;88.37;101153.74;105603;1256;70803;-54
2024/01/26 10:49:38;;;;;;;12.00;3.80;;;;;;;7.14;88.21;101145.55;105660;1253;69069;-51
2024/01/26 10:52:08;;;;;;;16.20;5.10;;;;;;;7.23;88.15;101143.02;105660;1251;69427;-54
2024/01/26 10:54:37;;;;;;;19.30;7.70;;;;;;;7.39;88.16;101145.98;105457;1251;181193;-53
2024/01/26 10:57:05;;;;;;;17.00;7.10;;;;;;;7.47;87.55;101139.10;105686;1251;82071;-54
2024/01/26 10:59:34;;;;;;;19.70;6.60;;;;;;;7.47;87.49;101130.05;105578;1255;72800;-55
2024/01/26 11:02:02;;;;;;;17.80;5.80;;;;;;;7.49;87.10;101121.85;105590;1253;69202;-55
2024/01/26 11:04:31;;;;;;;17.90;5.90;;;;;;;7.54;87.19;101117.27;105711;1257;69143;-54
2024/01/26 11:07:00;;;;;;;20.00;6.40;;;;;;;7.60;86.60;101107.61;105599;1251;73258;-53
2024/01/26 11:09:32;;;;;;;17.30;6.80;;;;;;;7.70;86.55;101091.48;105594;1251;82153;-53
2024/01/26 11:12:01;;;;;;;29.10;8.60;;;;;;;7.77;85.95;101081.63;105555;1251;70851;-55
2024/01/26 11:14:32;;;;;;;32.10;10.10;;;;;;;7.84;85.51;101079.27;105486;1251;69205;-53
2024/01/26 11:17:11;;;;;;;26.10;7.80;;;;;;;7.89;85.38;101073.98;105562;1255;69755;-54
2024/01/26 11:19:48;;;;;;;21.50;7.40;;;;;;;7.90;85.10;101066.13;105565;1251;75120;-52
2024/01/26 11:22:19;;;;;;;21.60;6.40;;;;;;;7.83;84.51;101050.41;105562;1256;81990;-53
2024/01/26 11:24:47;;;;;;;;;;;;;;;7.80;84.50;101047.31;105651;1251;72122;-52